Time;durP1;ratioP1;P1;durP2;ratioP2;P2;SDS_P1;SDS_P2;PMS_P1;PMS_P2;Temp;Humidity;BMP_temperature;BMP_pressure;BME280_temperature;BME280_humidity;BME280_pressure;Samples;Min_cycle;Max_cycle;Signal;HPM_P1;HPM_P2
2022/12/21 00:00:18;;;;;;;92.60;35.05;;;8.70;99.90;;;;;;4925029;29;20051;-75
2022/12/21 00:02:44;;;;;;;96.22;36.10;;;8.70;99.90;;;;;;4948374;29;20053;-75
2022/12/21 00:05:10;;;;;;;93.20;36.20;;;8.60;99.90;;;;;;4935824;29;20166;-75
2022/12/21 00:07:36;;;;;;;91.65;35.55;;;8.60;99.90;;;;;;4926181;29;20032;-75
2022/12/21 00:10:02;;;;;;;105.25;35.85;;;8.60;99.90;;;;;;4933645;29;20039;-75
2022/12/21 00:12:27;;;;;;;96.93;36.00;;;8.60;99.90;;;;;;4936036;29;20044;-74
2022/12/21 00:14:53;;;;;;;92.97;34.88;;;8.60;99.90;;;;;;4937874;29;20530;-74
2022/12/21 00:17:19;;;;;;;85.22;34.55;;;8.50;99.90;;;;;;4934765;29;20055;-74
2022/12/21 00:19:44;;;;;;;88.38;34.58;;;8.50;99.90;;;;;;4921120;29;20127;-75
2022/12/21 00:22:10;;;;;;;99.25;35.60;;;8.50;99.90;;;;;;4937097;28;20074;-74
2022/12/21 00:24:36;;;;;;;98.00;36.42;;;8.50;99.90;;;;;;4940054;29;20129;-74
2022/12/21 00:27:03;;;;;;;99.95;35.60;;;8.50;99.90;;;;;;4939718;29;20055;-74
2022/12/21 00:29:29;;;;;;;92.13;34.60;;;8.40;99.90;;;;;;4939120;29;20480;-75
2022/12/21 00:31:55;;;;;;;101.00;36.83;;;8.40;99.90;;;;;;4939442;29;20051;-75
2022/12/21 00:34:21;;;;;;;95.30;35.50;;;8.40;99.90;;;;;;4955828;28;20051;-74
2022/12/21 00:36:48;;;;;;;92.43;34.72;;;8.40;99.90;;;;;;4958856;28;20081;-74
2022/12/21 00:39:16;;;;;;;87.57;34.15;;;8.40;99.90;;;;;;4926566;28;20137;-74
2022/12/21 00:41:42;;;;;;;98.22;34.22;;;8.40;99.90;;;;;;4938824;29;20476;-75
2022/12/21 00:44:08;;;;;;;108.57;35.60;;;8.30;99.90;;;;;;4919988;29;20399;-74
2022/12/21 00:46:34;;;;;;;93.60;33.60;;;8.30;99.90;;;;;;4938161;28;20065;-74
2022/12/21 00:49:03;;;;;;;97.05;35.45;;;8.30;99.90;;;;;;4938882;29;20058;-75
2022/12/21 00:51:31;;;;;;;96.90;34.95;;;8.30;99.90;;;;;;4939448;29;20046;-75
2022/12/21 00:53:58;;;;;;;111.35;37.25;;;8.30;99.90;;;;;;4922454;29;20499;-75
2022/12/21 00:56:25;;;;;;;106.05;35.53;;;8.30;99.90;;;;;;4938851;28;20083;-75
2022/12/21 00:58:51;;;;;;;99.20;34.75;;;8.30;99.90;;;;;;4938906;29;20543;-74
2022/12/21 01:01:28;;;;;;;98.82;35.03;;;8.30;99.90;;;;;;4956133;28;20139;-74
2022/12/21 01:03:55;;;;;;;90.60;33.47;;;8.30;99.90;;;;;;4938607;29;20575;-75
2022/12/21 01:06:33;;;;;;;92.88;34.17;;;8.20;99.90;;;;;;4939015;28;20094;-75
2022/12/21 01:09:00;;;;;;;100.18;33.70;;;8.20;99.90;;;;;;4937913;29;20284;-75
2022/12/21 01:11:28;;;;;;;91.70;32.55;;;8.20;99.90;;;;;;4951734;28;20440;-74
2022/12/21 01:13:55;;;;;;;88.97;31.65;;;8.20;99.90;;;;;;4951552;29;20050;-74
2022/12/21 01:16:32;;;;;;;95.50;32.70;;;8.20;99.90;;;;;;4919492;29;20059;-74
2022/12/21 01:19:05;;;;;;;94.40;32.72;;;8.10;99.90;;;;;;4937936;28;20086;-74
2022/12/21 01:21:32;;;;;;;95.95;32.25;;;8.10;99.90;;;;;;4938690;29;20585;-74
2022/12/21 01:23:58;;;;;;;91.63;32.95;;;8.10;99.90;;;;;;4937290;28;20512;-74
2022/12/21 01:26:25;;;;;;;93.28;32.05;;;8.10;99.90;;;;;;4929939;28;20055;-74
2022/12/21 01:28:51;;;;;;;98.30;34.17;;;8.10;99.90;;;;;;4941392;29;20123;-74
2022/12/21 01:31:17;;;;;;;107.22;33.95;;;8.10;99.90;;;;;;4943731;28;20047;-75
2022/12/21 01:33:43;;;;;;;112.32;35.08;;;8.10;99.90;;;;;;4957317;28;20054;-74
2022/12/21 01:36:12;;;;;;;107.18;35.47;;;8.10;99.90;;;;;;4970854;28;20039;-75
2022/12/21 01:38:39;;;;;;;115.45;35.03;;;8.10;99.90;;;;;;4934459;29;20127;-75
2022/12/21 01:41:06;;;;;;;132.68;36.25;;;8.10;99.90;;;;;;4921782;28;20055;-75
2022/12/21 01:43:48;;;;;;;129.63;36.63;;;8.10;99.90;;;;;;4946253;29;20058;-74
2022/12/21 01:46:39;;;;;;;127.95;35.58;;;8.10;99.90;;;;;;4937173;28;20063;-74
2022/12/21 01:49:11;;;;;;;111.32;34.22;;;8.10;99.90;;;;;;4937783;29;20058;-74
2022/12/21 01:51:40;;;;;;;105.07;33.10;;;8.10;99.90;;;;;;4938092;29;20043;-74
2022/12/21 01:54:22;;;;;;;106.20;30.67;;;8.10;99.90;;;;;;4921659;29;20051;-74
2022/12/21 01:56:50;;;;;;;89.43;28.98;;;8.10;99.90;;;;;;4937523;29;20093;-74
2022/12/21 01:59:39;;;;;;;103.65;31.55;;;8.10;99.90;;;;;;4920500;28;20087;-74
2022/12/21 02:02:09;;;;;;;98.47;30.20;;;8.10;99.90;;;;;;4954234;28;20228;-75
2022/12/21 02:04:35;;;;;;;102.85;30.83;;;8.00;99.90;;;;;;4921884;29;20134;-75
2022/12/21 02:07:01;;;;;;;108.65;30.95;;;8.00;99.90;;;;;;4920566;29;20126;-74
2022/12/21 02:09:31;;;;;;;113.25;30.63;;;8.10;99.90;;;;;;4937172;28;20130;-75
2022/12/21 02:12:00;;;;;;;90.70;27.80;;;8.00;99.90;;;;;;4937541;29;20047;-74
2022/12/21 02:14:28;;;;;;;108.75;30.60;;;8.00;99.90;;;;;;4950820;28;20479;-74
2022/12/21 02:17:15;;;;;;;92.30;29.25;;;8.00;99.90;;;;;;4937750;29;20087;-75
2022/12/21 02:20:06;;;;;;;95.63;29.58;;;8.00;99.90;;;;;;4946002;28;20055;-74
2022/12/21 02:22:38;;;;;;;94.53;29.77;;;8.00;99.90;;;;;;4913454;29;20048;-74
2022/12/21 02:25:31;;;;;;;85.95;26.58;;;8.00;99.90;;;;;;4932393;29;20287;-73
2022/12/21 02:28:25;;;;;;;100.35;28.67;;;8.00;99.90;;;;;;4934301;29;20047;-75
2022/12/21 02:30:57;;;;;;;104.93;29.23;;;8.00;99.90;;;;;;4924870;29;20063;-75
2022/12/21 02:33:44;;;;;;;99.43;29.10;;;8.00;99.90;;;;;;4918584;29;20052;-75
2022/12/21 02:36:45;;;;;;;92.38;28.00;;;8.00;99.90;;;;;;4934487;29;20048;-74
2022/12/21 02:39:41;;;;;;;94.68;27.85;;;7.90;99.90;;;;;;4933368;29;20576;-74
2022/12/21 02:45:36;;;;;;;76.63;24.02;;;7.90;99.90;;;;;;4935417;29;20514;-75
2022/12/21 02:48:28;;;;;;;73.05;22.77;;;7.90;99.90;;;;;;4934068;29;20544;-74
2022/12/21 02:51:00;;;;;;;78.05;22.63;;;7.90;99.90;;;;;;4934338;29;20059;-75
2022/12/21 02:53:32;;;;;;;103.97;24.23;;;7.80;99.90;;;;;;4932995;29;20062;-75
2022/12/21 02:55:58;;;;;;;80.07;22.87;;;7.80;99.90;;;;;;4934241;29;20127;-74
2022/12/21 02:58:24;;;;;;;88.80;23.05;;;7.80;99.90;;;;;;4933192;29;20403;-74
2022/12/21 03:00:53;;;;;;;90.85;24.05;;;7.80;99.90;;;;;;4918762;29;20047;-74
2022/12/21 03:03:56;;;;;;;72.93;22.38;;;7.80;99.90;;;;;;4933986;29;20325;-74
2022/12/21 03:06:34;;;;;;;76.00;23.05;;;7.80;99.90;;;;;;4934064;29;20052;-74
2022/12/21 03:09:37;;;;;;;91.07;24.23;;;7.80;99.90;;;;;;4932346;29;20463;-74
2022/12/21 03:12:21;;;;;;;75.38;21.42;;;7.70;99.90;;;;;;4934905;29;20444;-74
2022/12/21 03:15:18;;;;;;;75.85;22.20;;;7.70;99.90;;;;;;4940804;28;20059;-74
2022/12/21 03:17:55;;;;;;;69.20;21.70;;;7.70;99.90;;;;;;4917391;29;20086;-74
2022/12/21 03:20:27;;;;;;;92.13;22.95;;;7.70;99.90;;;;;;4928203;29;20131;-74
2022/12/21 03:22:59;;;;;;;;;;;7.60;99.90;;;;;;4939853;28;20527;-74
2022/12/21 03:25:33;;;;;;;81.78;21.40;;;7.60;99.90;;;;;;4937457;29;19923;-74
2022/12/21 03:28:03;;;;;;;96.82;24.73;;;7.60;99.90;;;;;;4924844;29;20052;-73
2022/12/21 03:30:32;;;;;;;89.18;25.73;;;7.60;99.90;;;;;;4934683;29;20087;-74
2022/12/21 03:33:22;;;;;;;91.22;25.10;;;7.60;99.90;;;;;;4936687;29;20052;-74
2022/12/21 03:36:00;;;;;;;77.32;23.15;;;7.60;99.90;;;;;;4937473;29;20060;-74
2022/12/21 03:39:00;;;;;;;88.13;23.33;;;7.60;99.90;;;;;;4936178;29;20058;-73
2022/12/21 03:41:44;;;;;;;87.07;25.60;;;7.60;99.90;;;;;;4919821;29;20074;-74
2022/12/21 03:44:13;;;;;;;88.22;25.15;;;7.60;99.90;;;;;;4937001;29;20063;-73
2022/12/21 03:47:09;;;;;;;87.70;25.73;;;7.70;99.90;;;;;;4923579;29;20056;-73
2022/12/21 03:49:47;;;;;;;92.68;25.77;;;7.60;99.90;;;;;;4936283;29;20064;-73
2022/12/21 03:52:15;;;;;;;91.57;26.27;;;7.60;99.90;;;;;;4935959;29;20051;-73
2022/12/21 03:55:01;;;;;;;100.88;27.73;;;7.60;99.90;;;;;;4936655;29;20135;-73
2022/12/21 03:57:28;;;;;;;129.55;28.63;;;7.70;99.90;;;;;;4936786;29;20456;-73
2022/12/21 03:59:58;;;;;;;96.38;27.30;;;7.60;99.90;;;;;;4936537;29;20425;-75
2022/12/21 04:02:43;;;;;;;111.72;29.85;;;7.60;99.90;;;;;;4936796;29;20504;-74
2022/12/21 04:05:27;;;;;;;139.60;30.70;;;7.60;99.90;;;;;;4936953;29;20118;-74
2022/12/21 04:07:54;;;;;;;95.55;28.70;;;7.60;99.90;;;;;;4935892;29;20491;-74
2022/12/21 04:10:22;;;;;;;88.93;24.63;;;7.60;99.90;;;;;;4936869;29;20052;-74
2022/12/21 04:12:48;;;;;;;102.43;29.55;;;7.70;99.90;;;;;;4936583;29;20052;-73
2022/12/21 04:15:21;;;;;;;131.38;30.60;;;7.70;99.90;;;;;;4936467;29;20055;-74
2022/12/21 04:17:51;;;;;;;127.35;29.05;;;7.70;99.90;;;;;;4920097;29;20055;-74
2022/12/21 04:20:23;;;;;;;171.82;30.83;;;7.70;99.90;;;;;;4936706;29;20059;-73
2022/12/21 04:28:26;;;;;;;110.05;28.73;;;7.60;99.90;;;;;;4924900;29;20118;-74
2022/12/21 04:30:52;;;;;;;127.38;30.55;;;7.60;99.90;;;;;;4920837;29;20058;-74
2022/12/21 04:33:20;;;;;;;282.73;35.35;;;7.60;99.90;;;;;;4903793;29;20048;-74
2022/12/21 04:38:33;;;;;;;172.13;33.97;;;7.60;99.90;;;;;;4935559;29;20066;-74
2022/12/21 04:40:59;;;;;;;134.77;32.20;;;7.50;99.90;;;;;;4936538;29;20062;-73
2022/12/21 04:43:25;;;;;;;139.45;34.65;;;7.60;99.90;;;;;;4919571;29;20070;-74
2022/12/21 04:46:07;;;;;;;123.32;33.40;;;7.60;99.90;;;;;;4928898;29;20051;-74
2022/12/21 04:48:34;;;;;;;131.37;33.73;;;7.60;99.90;;;;;;4935166;29;20058;-73
2022/12/21 04:51:14;;;;;;;183.90;35.92;;;7.60;99.90;;;;;;4936305;29;20051;-74
2022/12/21 04:53:41;;;;;;;126.47;33.28;;;7.60;99.90;;;;;;4934766;29;20115;-73
2022/12/21 04:56:07;;;;;;;181.35;34.88;;;7.60;99.90;;;;;;4936385;29;20519;-74
2022/12/21 04:58:33;;;;;;;127.00;33.00;;;7.60;99.90;;;;;;4935047;29;20134;-74
2022/12/21 05:00:59;;;;;;;145.38;34.25;;;7.60;99.90;;;;;;4920249;29;20083;-74
2022/12/21 05:03:24;;;;;;;138.73;34.38;;;7.60;99.90;;;;;;4933457;29;20048;-74
2022/12/21 05:05:50;;;;;;;155.93;35.22;;;7.60;99.90;;;;;;4920137;29;20565;-74
2022/12/21 05:08:16;;;;;;;149.82;34.47;;;7.60;99.90;;;;;;4934232;29;20052;-74
2022/12/21 05:10:42;;;;;;;223.75;36.65;;;7.60;99.90;;;;;;4935286;29;20087;-74
2022/12/21 05:13:07;;;;;;;239.32;37.83;;;7.60;99.90;;;;;;4919968;29;20079;-74
2022/12/21 05:15:38;;;;;;;246.38;38.00;;;7.60;99.90;;;;;;4935473;29;20043;-74
2022/12/21 05:18:04;;;;;;;156.05;36.88;;;7.50;99.90;;;;;;4922045;29;20067;-74
2022/12/21 05:20:29;;;;;;;225.27;38.00;;;7.60;99.90;;;;;;4935721;29;20062;-74
2022/12/21 05:22:55;;;;;;;161.05;36.28;;;7.60;99.90;;;;;;4933720;29;20407;-73
2022/12/21 05:25:21;;;;;;;171.32;37.50;;;7.60;99.90;;;;;;4935857;29;20171;-73
2022/12/21 05:27:46;;;;;;;222.77;38.42;;;7.50;99.90;;;;;;4935626;29;20057;-73
2022/12/21 05:30:12;;;;;;;280.08;39.05;;;7.50;99.90;;;;;;4932600;29;20055;-73
2022/12/21 05:32:38;;;;;;;271.25;40.13;;;7.60;99.90;;;;;;4929564;29;20079;-73
2022/12/21 05:35:04;;;;;;;175.73;37.88;;;7.60;99.90;;;;;;4935624;29;20447;-74
2022/12/21 05:37:30;;;;;;;306.38;42.05;;;7.50;99.90;;;;;;4934510;29;20082;-74
2022/12/21 05:39:56;;;;;;;355.77;44.72;;;7.60;99.90;;;;;;4934569;29;20424;-74
2022/12/21 05:42:21;;;;;;;226.32;39.85;;;7.50;99.90;;;;;;4918946;29;20043;-73
2022/12/21 05:44:47;;;;;;;191.32;40.35;;;7.60;99.90;;;;;;4933970;29;20048;-73
2022/12/21 05:47:13;;;;;;;441.83;47.70;;;7.50;99.90;;;;;;4915509;29;20646;-73
2022/12/21 05:49:38;;;;;;;224.00;42.47;;;7.50;99.90;;;;;;4941427;29;20056;-74
2022/12/21 05:52:04;;;;;;;265.40;41.38;;;7.50;99.90;;;;;;4934183;29;20084;-73
2022/12/21 05:54:30;;;;;;;233.18;43.50;;;7.50;99.90;;;;;;4934848;29;20055;-73
2022/12/21 05:56:55;;;;;;;205.35;42.08;;;7.50;99.90;;;;;;4918879;29;20044;-73
2022/12/21 05:59:21;;;;;;;243.45;44.45;;;7.60;99.90;;;;;;4919220;29;20063;-73
2022/12/21 06:01:47;;;;;;;204.85;42.22;;;7.50;99.90;;;;;;4934358;29;20046;-74
2022/12/21 06:04:13;;;;;;;167.65;39.40;;;7.60;99.90;;;;;;4934508;29;20051;-73
2022/12/21 06:06:38;;;;;;;234.23;42.17;;;7.60;99.90;;;;;;4934695;29;20051;-74
2022/12/21 06:09:04;;;;;;;191.82;41.90;;;7.60;99.90;;;;;;4934960;29;20052;-74
2022/12/21 06:11:31;;;;;;;254.38;43.95;;;7.50;99.90;;;;;;4934412;29;20075;-74
2022/12/21 06:13:57;;;;;;;282.45;45.75;;;7.60;99.90;;;;;;4934351;29;20408;-74
2022/12/21 06:16:25;;;;;;;232.95;43.70;;;7.60;99.90;;;;;;4934936;29;20048;-73
2022/12/21 06:18:51;;;;;;;188.50;44.20;;;7.60;99.90;;;;;;4934178;29;20535;-73
2022/12/21 06:21:18;;;;;;;274.75;45.67;;;7.60;99.90;;;;;;4933573;29;20061;-73
2022/12/21 06:23:45;;;;;;;247.63;45.92;;;8.50;99.90;;;;;;4917158;29;20060;-73
2022/12/21 06:26:16;;;;;;;187.60;41.08;;;7.60;99.90;;;;;;4933146;29;20560;-73
2022/12/21 06:28:46;;;;;;;225.03;43.07;;;7.60;99.90;;;;;;4930312;29;20051;-73
2022/12/21 06:31:13;;;;;;;184.13;40.70;;;7.60;99.90;;;;;;4933651;29;20048;-73
2022/12/21 06:33:39;;;;;;;190.65;40.58;;;7.60;99.90;;;;;;4931744;29;20106;-74
2022/12/21 06:36:07;;;;;;;196.85;40.95;;;7.60;99.90;;;;;;4928955;29;20055;-74
2022/12/21 06:38:33;;;;;;;275.48;44.25;;;7.60;99.90;;;;;;4945444;29;20063;-74
2022/12/21 06:41:01;;;;;;;280.35;44.75;;;7.60;99.90;;;;;;4949543;29;20127;-73
2022/12/21 06:43:29;;;;;;;396.30;48.53;;;7.60;99.90;;;;;;4918714;29;20400;-73
2022/12/21 06:46:01;;;;;;;291.75;44.08;;;7.60;99.90;;;;;;4934934;29;20091;-73
2022/12/21 06:48:28;;;;;;;479.23;50.97;;;7.60;99.90;;;;;;4947009;29;20417;-73
2022/12/21 06:50:59;;;;;;;207.52;40.30;;;7.60;99.90;;;;;;4953399;28;20043;-73
2022/12/21 06:53:27;;;;;;;327.83;45.45;;;7.60;99.90;;;;;;4950081;29;20047;-73
2022/12/21 06:56:04;;;;;;;289.67;43.88;;;7.60;99.90;;;;;;4951131;29;20490;-73
2022/12/21 06:58:31;;;;;;;262.88;43.72;;;7.60;99.90;;;;;;4949348;29;20054;-73
2022/12/21 07:01:06;;;;;;;328.80;46.05;;;7.60;99.90;;;;;;4947329;29;20047;-73
2022/12/21 07:03:33;;;;;;;321.35;43.55;;;7.60;99.90;;;;;;4951794;29;20051;-74
2022/12/21 07:05:59;;;;;;;271.08;43.78;;;7.60;99.90;;;;;;4940704;29;20046;-74
2022/12/21 07:08:25;;;;;;;244.85;42.47;;;7.60;99.90;;;;;;4943539;29;20094;-74
2022/12/21 07:10:58;;;;;;;537.17;52.97;;;7.60;99.90;;;;;;4921817;29;20531;-74
2022/12/21 07:13:26;;;;;;;204.63;42.13;;;7.60;99.90;;;;;;4936970;29;20054;-73
2022/12/21 07:15:52;;;;;;;261.75;43.03;;;7.60;99.90;;;;;;4935372;29;20052;-73
2022/12/21 07:18:18;;;;;;;380.90;49.92;;;7.60;99.90;;;;;;4956708;29;20599;-73
2022/12/21 07:20:44;;;;;;;278.73;45.08;;;7.60;99.90;;;;;;4940913;29;20058;-74
2022/12/21 07:23:10;;;;;;;342.05;47.92;;;7.60;99.90;;;;;;4946074;29;20051;-73
2022/12/21 07:25:35;;;;;;;281.45;45.92;;;7.60;99.90;;;;;;4919005;29;20516;-73
2022/12/21 07:28:01;;;;;;;272.60;45.72;;;7.60;99.90;;;;;;4932609;29;20095;-73
2022/12/21 07:30:27;;;;;;;187.70;42.33;;;7.70;99.90;;;;;;4926990;29;20060;-73
2022/12/21 07:32:53;;;;;;;259.02;43.58;;;7.60;99.90;;;;;;4934778;29;20052;-73
2022/12/21 07:35:21;;;;;;;238.38;45.63;;;7.60;99.90;;;;;;4945706;29;20408;-73
2022/12/21 07:37:48;;;;;;;315.75;49.08;;;7.60;99.90;;;;;;4944695;29;20491;-73
2022/12/21 07:40:15;;;;;;;196.50;44.78;;;7.60;99.90;;;;;;4936928;29;20048;-73
2022/12/21 07:42:42;;;;;;;449.67;52.22;;;7.60;99.90;;;;;;4918668;29;20094;-73
2022/12/21 07:45:09;;;;;;;408.55;51.72;;;7.60;99.90;;;;;;4937411;29;20433;-73
2022/12/21 07:47:35;;;;;;;331.67;49.10;;;7.60;99.90;;;;;;4921387;29;20130;-73
2022/12/21 07:50:02;;;;;;;190.80;44.13;;;7.60;99.90;;;;;;4932775;29;20119;-72
2022/12/21 07:52:30;;;;;;;268.27;47.47;;;7.60;99.90;;;;;;4927791;29;20047;-73
2022/12/21 07:54:55;;;;;;;320.85;46.35;;;7.60;99.90;;;;;;4938718;29;20427;-73
2022/12/21 07:57:21;;;;;;;172.25;41.58;;;7.60;99.90;;;;;;4943932;29;20158;-73
2022/12/21 07:59:47;;;;;;;210.48;45.33;;;7.60;99.90;;;;;;4948589;29;20047;-73
2022/12/21 08:02:12;;;;;;;188.65;44.05;;;7.60;99.90;;;;;;4937102;29;20062;-73
2022/12/21 08:04:38;;;;;;;237.80;46.20;;;7.60;99.90;;;;;;4944614;29;20040;-73
2022/12/21 08:07:04;;;;;;;213.68;44.88;;;7.60;99.90;;;;;;4937347;28;20123;-73
2022/12/21 08:09:29;;;;;;;372.70;53.22;;;7.60;99.90;;;;;;4923596;29;20075;-74
2022/12/21 08:11:55;;;;;;;203.40;45.50;;;7.60;99.90;;;;;;4947854;29;20043;-73
2022/12/21 08:14:21;;;;;;;338.75;51.22;;;7.60;99.90;;;;;;4944003;29;20084;-74
2022/12/21 08:16:46;;;;;;;208.48;44.75;;;7.60;99.90;;;;;;4917148;29;20047;-74
2022/12/21 08:19:12;;;;;;;221.90;46.28;;;7.60;99.90;;;;;;4944766;29;20075;-73
2022/12/21 08:21:38;;;;;;;209.45;46.78;;;7.60;99.90;;;;;;4945765;29;20472;-73
2022/12/21 08:24:04;;;;;;;256.00;50.05;;;7.60;99.90;;;;;;4933556;29;20051;-74
2022/12/21 08:26:30;;;;;;;281.80;49.15;;;7.60;99.90;;;;;;4945301;29;20479;-73
2022/12/21 08:28:57;;;;;;;318.45;51.35;;;7.60;99.90;;;;;;4945314;29;20411;-73
2022/12/21 08:31:23;;;;;;;220.07;47.45;;;7.60;99.90;;;;;;4946619;29;20065;-73
2022/12/21 08:33:48;;;;;;;306.83;50.33;;;7.60;99.90;;;;;;4947932;29;20048;-74
2022/12/21 08:36:16;;;;;;;250.77;47.15;;;7.60;99.90;;;;;;4946080;29;20480;-73
2022/12/21 08:38:42;;;;;;;271.27;48.13;;;7.70;99.90;;;;;;4946574;29;20063;-73
2022/12/21 08:41:08;;;;;;;198.63;45.80;;;7.60;99.90;;;;;;4946638;29;20047;-73
2022/12/21 08:43:35;;;;;;;270.50;49.10;;;7.60;99.90;;;;;;4946583;29;20047;-72
2022/12/21 08:46:05;;;;;;;189.90;45.80;;;7.70;99.90;;;;;;4888611;28;20521;-73
2022/12/21 08:48:31;;;;;;;228.18;46.95;;;7.60;99.90;;;;;;4944624;29;20051;-74
2022/12/21 08:50:57;;;;;;;262.77;49.15;;;7.60;99.90;;;;;;4945548;29;20106;-73
2022/12/21 08:53:24;;;;;;;215.70;44.63;;;7.60;99.90;;;;;;4944599;29;20095;-73
2022/12/21 08:55:50;;;;;;;159.45;41.75;;;7.70;99.90;;;;;;4944967;29;20146;-73
2022/12/21 08:58:16;;;;;;;219.38;47.80;;;7.60;99.90;;;;;;4944520;29;20130;-73
2022/12/21 09:00:42;;;;;;;242.60;48.30;;;7.60;99.90;;;;;;4947143;29;20085;-73
2022/12/21 09:03:09;;;;;;;236.40;48.38;;;7.60;99.90;;;;;;4941216;29;20066;-73
2022/12/21 09:05:35;;;;;;;355.48;54.38;;;7.60;99.90;;;;;;4930399;29;20051;-73
2022/12/21 09:08:01;;;;;;;209.75;46.60;;;7.60;99.90;;;;;;4945142;28;20043;-73
2022/12/21 09:10:28;;;;;;;168.18;43.05;;;7.60;99.90;;;;;;4945488;29;20098;-73
2022/12/21 09:12:55;;;;;;;240.75;46.28;;;7.60;99.90;;;;;;4951611;28;20130;-73
2022/12/21 09:15:21;;;;;;;201.40;44.60;;;7.60;99.90;;;;;;4944529;28;20048;-73
2022/12/21 09:17:47;;;;;;;157.05;40.72;;;7.70;99.90;;;;;;4935625;29;20495;-73
2022/12/21 09:20:13;;;;;;;240.02;45.63;;;7.60;99.90;;;;;;4928189;29;20087;-73
2022/12/21 09:22:39;;;;;;;182.75;42.33;;;7.60;99.90;;;;;;4943343;28;20501;-72
2022/12/21 09:25:07;;;;;;;175.23;42.63;;;7.60;99.90;;;;;;4944632;28;20540;-73
2022/12/21 09:27:33;;;;;;;262.88;47.97;;;7.70;99.90;;;;;;4956565;28;20487;-73
2022/12/21 09:29:59;;;;;;;135.55;39.58;;;7.60;99.90;;;;;;4951276;28;20053;-73
2022/12/21 09:32:25;;;;;;;174.73;43.63;;;7.60;99.90;;;;;;4952489;28;20047;-72
2022/12/21 09:34:51;;;;;;;206.73;44.88;;;7.70;99.90;;;;;;4946139;28;20043;-72
2022/12/21 09:37:17;;;;;;;165.25;41.97;;;7.60;99.90;;;;;;4940112;28;20058;-74
2022/12/21 09:39:43;;;;;;;140.82;40.15;;;7.60;99.90;;;;;;4930487;28;20054;-73
2022/12/21 09:42:26;;;;;;;140.65;40.05;;;7.60;99.90;;;;;;4940813;28;20047;-73
2022/12/21 09:45:02;;;;;;;162.57;43.78;;;7.60;99.90;;;;;;4946709;28;20065;-74
2022/12/21 09:47:45;;;;;;;169.65;44.00;;;7.60;99.90;;;;;;4943878;28;20051;-72
2022/12/21 09:50:24;;;;;;;141.05;41.42;;;7.60;99.90;;;;;;4944802;28;20584;-73
2022/12/21 09:53:25;;;;;;;129.85;40.30;;;7.70;99.90;;;;;;4946564;28;20059;-73
2022/12/21 09:55:56;;;;;;;123.55;39.92;;;7.70;99.90;;;;;;4913100;28;20096;-72
2022/12/21 09:58:35;;;;;;;118.22;39.50;;;7.70;99.90;;;;;;4932114;28;20051;-72
2022/12/21 10:01:24;;;;;;;100.82;33.28;;;7.80;99.90;;;;;;4945756;28;20047;-72
2022/12/21 10:04:10;;;;;;;106.55;38.45;;;7.80;99.90;;;;;;4946001;28;20043;-72
2022/12/21 10:06:51;;;;;;;111.57;39.28;;;7.80;99.90;;;;;;4960773;28;20132;-72
2022/12/21 10:09:19;;;;;;;115.43;37.58;;;7.80;99.90;;;;;;4962791;28;20171;-72
2022/12/21 10:12:01;;;;;;;99.50;37.33;;;7.80;99.90;;;;;;4933311;28;20093;-72
2022/12/21 10:14:39;;;;;;;109.43;38.97;;;7.80;99.90;;;;;;4942640;28;20191;-73
2022/12/21 10:17:26;;;;;;;110.53;39.13;;;7.80;99.90;;;;;;4944307;28;20051;-73
2022/12/21 10:20:01;;;;;;;105.38;38.33;;;7.80;99.90;;;;;;4946184;28;20055;-72
2022/12/21 10:22:39;;;;;;;99.90;39.05;;;7.90;99.90;;;;;;4942906;28;20050;-73
2022/12/21 10:25:20;;;;;;;105.60;39.08;;;7.90;99.90;;;;;;4940604;28;20439;-72
2022/12/21 10:27:51;;;;;;;101.40;37.58;;;8.00;99.90;;;;;;4940375;28;20047;-73
2022/12/21 10:30:18;;;;;;;88.40;36.72;;;8.00;99.90;;;;;;4942527;28;20062;-74
2022/12/21 10:32:50;;;;;;;93.15;37.28;;;8.00;99.90;;;;;;4931440;28;20047;-73
2022/12/21 10:35:36;;;;;;;96.20;36.78;;;8.10;99.90;;;;;;4922539;28;20074;-73
2022/12/21 10:38:19;;;;;;;91.47;36.90;;;8.00;99.90;;;;;;4940014;28;20051;-73
2022/12/21 10:40:52;;;;;;;98.35;38.22;;;8.00;99.90;;;;;;4962032;28;20047;-73
2022/12/21 10:43:19;;;;;;;93.65;38.20;;;8.10;99.90;;;;;;4943412;28;20054;-73
2022/12/21 10:45:45;;;;;;;93.45;37.38;;;8.10;99.90;;;;;;4922584;28;20055;-72
2022/12/21 10:48:11;;;;;;;96.40;38.47;;;8.20;99.90;;;;;;4954719;28;20059;-73
2022/12/21 10:50:43;;;;;;;87.35;35.13;;;8.10;99.90;;;;;;4933490;28;20093;-73
2022/12/21 10:53:22;;;;;;;93.85;37.72;;;8.20;99.90;;;;;;4943341;28;20050;-73
2022/12/21 10:55:49;;;;;;;85.05;35.47;;;8.20;99.90;;;;;;4958419;28;20055;-73
2022/12/21 10:58:21;;;;;;;89.22;36.35;;;8.30;99.90;;;;;;4944290;28;20487;-73
2022/12/21 11:01:03;;;;;;;77.47;33.92;;;8.30;99.90;;;;;;4943117;28;20066;-72
2022/12/21 11:03:34;;;;;;;86.43;35.27;;;8.30;99.90;;;;;;4944705;28;20561;-72
2022/12/21 11:06:18;;;;;;;80.78;34.25;;;8.30;99.90;;;;;;4943550;28;20229;-72
2022/12/21 11:08:46;;;;;;;76.15;34.47;;;8.40;99.90;;;;;;4939205;28;20057;-72
2022/12/21 11:11:41;;;;;;;77.13;33.78;;;8.30;99.90;;;;;;4945411;28;20051;-73
2022/12/21 11:14:10;;;;;;;70.95;32.97;;;8.40;99.90;;;;;;4925768;28;20211;-72
2022/12/21 11:16:36;;;;;;;75.65;33.65;;;8.40;99.90;;;;;;4943964;28;20062;-72
2022/12/21 11:19:03;;;;;;;65.82;29.52;;;8.40;99.90;;;;;;4947042;28;20038;-72
2022/12/21 11:21:42;;;;;;;75.15;32.00;;;8.40;99.90;;;;;;4943561;28;20047;-72
2022/12/21 11:24:19;;;;;;;75.28;32.45;;;8.40;99.90;;;;;;4944881;28;20121;-72
2022/12/21 11:26:59;;;;;;;72.82;31.92;;;8.50;99.90;;;;;;4951501;28;20062;-73
2022/12/21 11:29:43;;;;;;;66.55;30.90;;;8.50;99.90;;;;;;4960883;28;20051;-73
2022/12/21 11:32:11;;;;;;;67.88;31.55;;;8.50;99.90;;;;;;4950207;28;20126;-71
2022/12/21 11:34:57;;;;;;;69.50;31.05;;;8.60;99.90;;;;;;4952250;28;20047;-72
2022/12/21 11:37:45;;;;;;;71.18;32.72;;;8.60;99.90;;;;;;4950535;28;20189;-72
2022/12/21 11:40:11;;;;;;;72.63;32.85;;;8.50;99.90;;;;;;4967268;28;20059;-72
2022/12/21 11:42:52;;;;;;;75.15;33.40;;;8.50;99.90;;;;;;4932879;28;20042;-72
2022/12/21 11:45:22;;;;;;;69.27;32.93;;;8.60;99.90;;;;;;4941326;28;20057;-72
2022/12/21 11:48:06;;;;;;;73.22;32.38;;;8.50;99.90;;;;;;4948026;28;20047;-71
2022/12/21 11:50:49;;;;;;;70.43;33.50;;;8.50;99.90;;;;;;4952166;28;20054;-72
2022/12/21 11:53:29;;;;;;;76.53;34.20;;;8.50;99.90;;;;;;4951000;28;20055;-72
2022/12/21 11:56:01;;;;;;;77.03;35.10;;;8.50;99.90;;;;;;4945388;28;20047;-71
2022/12/21 11:58:39;;;;;;;76.28;35.15;;;8.50;99.90;;;;;;4945200;28;20395;-71
2022/12/21 12:01:04;;;;;;;75.45;36.17;;;8.50;99.90;;;;;;4935064;28;20054;-71
2022/12/21 12:03:48;;;;;;;70.10;35.28;;;8.50;99.90;;;;;;4952834;28;20047;-72
2022/12/21 12:06:25;;;;;;;80.95;36.50;;;8.40;99.90;;;;;;4931430;28;20051;-72
2022/12/21 12:09:26;;;;;;;80.03;36.70;;;8.40;99.90;;;;;;4946815;28;20055;-72
2022/12/21 12:12:08;;;;;;;82.32;37.00;;;8.50;99.90;;;;;;4934619;28;20078;-71
2022/12/21 12:14:53;;;;;;;83.63;38.73;;;8.50;99.90;;;;;;4952266;28;20066;-72
2022/12/21 12:17:27;;;;;;;81.40;37.65;;;8.50;99.90;;;;;;4956700;28;20872;-72
2022/12/21 12:20:08;;;;;;;80.20;38.45;;;8.50;99.90;;;;;;4949770;28;20050;-72
2022/12/21 12:23:05;;;;;;;78.00;37.70;;;8.50;99.90;;;;;;4949004;28;20051;-71
2022/12/21 12:25:49;;;;;;;84.20;39.28;;;8.40;99.90;;;;;;4967499;28;20410;-71
2022/12/21 12:28:33;;;;;;;84.50;37.92;;;8.40;99.90;;;;;;4942054;28;20437;-71
2022/12/21 12:31:27;;;;;;;85.75;38.17;;;8.40;99.90;;;;;;4945144;28;20471;-71
2022/12/21 12:34:18;;;;;;;81.75;37.88;;;8.40;99.90;;;;;;4916009;28;20410;-71
2022/12/21 12:37:08;;;;;;;81.35;36.60;;;8.40;99.90;;;;;;4940076;28;20202;-71
2022/12/21 12:40:12;;;;;;;82.80;36.05;;;8.40;99.90;;;;;;4927415;28;20063;-71
2022/12/21 12:42:48;;;;;;;78.00;34.70;;;8.30;99.90;;;;;;4939665;28;20046;-72
2022/12/21 12:45:35;;;;;;;79.82;36.50;;;8.30;99.90;;;;;;4947970;28;20058;-71
2022/12/21 12:48:16;;;;;;;88.60;37.70;;;8.30;99.90;;;;;;4947128;28;20087;-72
2022/12/21 12:50:54;;;;;;;79.97;36.80;;;8.30;99.90;;;;;;4949293;28;20059;-72
2022/12/21 12:53:51;;;;;;;82.80;37.33;;;8.30;99.90;;;;;;4946268;28;20047;-72
2022/12/21 12:56:29;;;;;;;83.60;36.88;;;8.30;99.90;;;;;;4939566;28;20125;-72
2022/12/21 12:59:30;;;;;;;78.82;34.40;;;8.40;99.90;;;;;;4948735;28;20054;-71
2022/12/21 13:02:11;;;;;;;76.80;36.30;;;8.40;99.90;;;;;;4902980;28;20503;-72
2022/12/21 13:05:00;;;;;;;75.45;34.60;;;8.30;99.90;;;;;;4950790;28;20395;-72
2022/12/21 13:07:38;;;;;;;78.13;35.25;;;8.30;99.90;;;;;;4945861;28;20047;-73